Music City Queen — WDH4982 — position and weather

sailwx.info

Track history (hours):
 
Tides and Currents Weather Stations Pressure Air Temp Water Temp Dewpoint Dewpoint Depression Visibility Wind Speed Wind Dir Waves Ship Positions

Music City Queen

Owner: Massachusetts Bay Lines 60 Rowes Wharf Boston, Ma. 02110, Boston, MA. More information available from US FCC via Universal Licensing System and Coast Guard Vessel Documentation Center.

Last reported at 2018-Jun-25 00:48 UTC. Time now 2018-Jun-25 04:26 UTC.
Position N 42°21' W 071°03'.

Length 32 m; draft 2 m.

Type: Passenger vessel. MMSI: 367623310.

Date/timePositionNaut miles runAvg speedWind from/ knotsBaromVisibWave heightAir tempDewpointWater temp
2018-Jun-25 00:48N 42°21' W 071°03'1 1.8
2018-Jun-25 00:30N 42°22' W 071°03'0 0.3
2018-Jun-25 00:00N 42°22' W 071°02'2 4.8
2018-Jun-24 23:30N 42°20' W 071°00'2 5.0
2018-Jun-24 23:00N 42°21' W 071°03'0 0.2
2018-Jun-24 22:31N 42°21' W 071°03'0 0.1
2018-Jun-24 22:00N 42°21' W 071°03'0 0.0
2018-Jun-24 00:43N 42°21' W 071°03'1 3.5
2018-Jun-24 00:30N 42°22' W 071°03'0 0.6
2018-Jun-24 00:00N 42°22' W 071°02'2 3.4
2018-Jun-23 23:30N 42°21' W 071°01'2 3.4
2018-Jun-23 23:00N 42°21' W 071°03'0 0.2
2018-Jun-23 22:30N 42°21' W 071°03'0 0.9
2018-Jun-23 22:00N 42°22' W 071°03'1 2.5
2018-Jun-23 21:30N 42°23' W 071°03'0 0.6
2018-Jun-23 21:00N 42°23' W 071°03'1 3.0
2018-Jun-23 20:30N 42°22' W 071°02'1 1.9
2018-Jun-23 20:00N 42°21' W 071°02'1 2.1
2018-Jun-23 19:30N 42°21' W 071°03'0 0.0
2018-Jun-23 02:31N 42°21' W 071°03'0 2.0
2018-Jun-23 02:31N 42°21' W 071°03'1 2.5
2018-Jun-23 02:00N 42°21' W 071°01'1 1.8
2018-Jun-23 01:30N 42°20' W 071°00'2 4.1
2018-Jun-23 01:00N 42°21' W 071°03'1 1.2
2018-Jun-23 00:30N 42°22' W 071°03'1 1.2
2018-Jun-23 00:01N 42°22' W 071°02'1 2.6
2018-Jun-22 23:30N 42°21' W 071°01'2 3.3
2018-Jun-22 23:00N 42°21' W 071°03'0 0.2
2018-Jun-22 22:30N 42°21' W 071°03'0 0.1
2018-Jun-22 22:00N 42°21' W 071°03'1 1.1
2018-Jun-22 21:31N 42°22' W 071°03'1 0.0
2018-Jun-22 02:38N 42°21' W 071°03'0 0.1
2018-Jun-22 02:30N 42°21' W 071°03'0 0.2
2018-Jun-22 02:01N 42°21' W 071°03'2 3.6
2018-Jun-22 01:31N 42°21' W 071°01'2 3.3
2018-Jun-22 01:00N 42°20' W 070°58'0 0.7
2018-Jun-22 00:30N 42°20' W 070°59'1 2.9
2018-Jun-22 00:00N 42°20' W 071°01'2 3.2
2018-Jun-21 23:30N 42°21' W 071°03'0 0.5
2018-Jun-21 23:00N 42°21' W 071°03'0 0.0
2018-Jun-21 22:30N 42°21' W 071°03'0 0.0
2018-Jun-21 22:00N 42°21' W 071°03'0 0.0
2018-Jun-20 15:00N 42°21' W 071°03'0 0.0
2018-Jun-20 14:30N 42°21' W 071°03'0 0.2
2018-Jun-20 14:00N 42°21' W 071°03'0 0.2
2018-Jun-20 13:31N 42°21' W 071°03'0 0.0
2018-Jun-20 13:00N 42°21' W 071°03'0 0.0
2018-Jun-20 00:41N 42°21' W 071°03'0 2.0
2018-Jun-20 00:30N 42°22' W 071°03'1 1.9
2018-Jun-20 00:00N 42°21' W 071°02'1 2.9
2018-Jun-19 23:30N 42°20' W 071°00'2 0.0
2018-Jun-17 20:35N 42°21' W 071°03'0 0.5
2018-Jun-17 20:30N 42°21' W 071°03'1 1.8
2018-Jun-17 20:00N 42°22' W 071°03'2 4.2
2018-Jun-17 19:30N 42°21' W 071°01'0 1.0
2018-Jun-17 19:00N 42°20' W 071°01'2 3.7
2018-Jun-17 18:30N 42°21' W 071°03'0 0.0
2018-Jun-17 18:00N 42°21' W 071°03'0 0.0
2018-Jun-17 17:30N 42°21' W 071°03'0 0.0
2018-Jun-17 00:58N 42°21' W 071°03'1 1.9
2018-Jun-17 00:30N 42°22' W 071°03'1 2.4
2018-Jun-17 00:00N 42°21' W 071°02'1 2.9
2018-Jun-16 23:31N 42°20' W 071°00'2 3.9
2018-Jun-16 23:00N 42°21' W 071°03'0 0.3
2018-Jun-16 22:30N 42°21' W 071°03'1 1.0
2018-Jun-16 22:00N 42°22' W 071°03'1 2.0
2018-Jun-16 21:30N 42°21' W 071°02'1 1.6
2018-Jun-16 21:00N 42°21' W 071°03'2 4.5
2018-Jun-16 20:30N 42°20' W 071°00'2 3.5
2018-Jun-16 20:01N 42°19' W 070°58'1 2.3
2018-Jun-16 19:30N 42°20' W 070°59'0 0.9
2018-Jun-16 19:00N 42°20' W 070°59'2 3.9
2018-Jun-16 18:30N 42°21' W 071°01'2 3.0
2018-Jun-16 18:00N 42°21' W 071°03'0 0.0
2018-Jun-16 17:30N 42°21' W 071°03'0 0.0
2018-Jun-16 17:00N 42°21' W 071°03'0 0.0
2018-Jun-16 02:40N 42°21' W 071°03'0 0.4
2018-Jun-16 02:30N 42°21' W 071°03'1 2.8
2018-Jun-16 02:00N 42°21' W 071°01'1 1.7
2018-Jun-16 01:30N 42°21' W 071°02'1 1.3
2018-Jun-16 01:00N 42°21' W 071°03'0 0.7
2018-Jun-16 00:30N 42°22' W 071°03'0 0.8
2018-Jun-16 00:00N 42°22' W 071°02'1 2.6
2018-Jun-15 23:30N 42°21' W 071°01'2 3.3
2018-Jun-15 23:00N 42°21' W 071°03'0 0.0
2018-Jun-15 22:30N 42°21' W 071°03'0 0.0
2018-Jun-15 22:00N 42°21' W 071°03'1 1.8
2018-Jun-15 21:30N 42°22' W 071°03'1 2.4
2018-Jun-15 21:00N 42°21' W 071°02'1 1.2
2018-Jun-15 20:30N 42°21' W 071°03'0 0.2
2018-Jun-15 20:00N 42°21' W 071°03'0 0.2
2018-Jun-15 19:30N 42°21' W 071°03'1 2.5
2018-Jun-15 19:00N 42°23' W 071°03'1 1.3
2018-Jun-15 18:30N 42°23' W 071°03'0 0.0
2018-Jun-15 18:01N 42°23' W 071°03'0 0.0
2018-Jun-15 17:30N 42°23' W 071°03'0 0.0
2018-Jun-15 17:00N 42°23' W 071°03'0 0.0
2018-Jun-15 16:30N 42°23' W 071°03'0 0.0
2018-Jun-15 16:01N 42°23' W 071°03'0 0.0
2018-Jun-15 13:26N 42°23' W 071°03'0 0.0
2018-Jun-15 13:00N 42°23' W 071°03'0 0.0
2018-Jun-15 12:26N 42°23' W 071°03'0 0.0
2018-Jun-15 12:00N 42°23' W 071°03'0 0.0
2018-Jun-15 11:30N 42°23' W 071°03'0 0.0
2018-Jun-15 04:09N 42°23' W 071°03'0 0.3
2018-Jun-15 04:01N 42°23' W 071°03'2 3.6
2018-Jun-15 03:30N 42°21' W 071°03'1 2.8
2018-Jun-15 03:00N 42°21' W 071°01'3 7.0
2018-Jun-15 02:30N 42°18' W 070°58'3 5.4
2018-Jun-15 02:00N 42°16' W 070°56'1 1.9
2018-Jun-15 01:30N 42°15' W 070°55'2 3.5
2018-Jun-15 01:01N 42°17' W 070°56'  
Track history (hours):
 
Tides and Currents Weather Stations Pressure Air Temp Water Temp Dewpoint Dewpoint Depression Visibility Wind Speed Wind Dir Waves Ship Positions

Music City Queen

Owner: Massachusetts Bay Lines 60 Rowes Wharf Boston, Ma. 02110, Boston, MA. More information available from US FCC via Universal Licensing System and Coast Guard Vessel Documentation Center.

Last reported at 2018-Jun-25 00:48 UTC. Time now 2018-Jun-25 04:26 UTC.
Position N 42°21' W 071°03'.

Length 32 m; draft 2 m.

Type: Passenger vessel. MMSI: 367623310.

Date/timePositionNaut miles runAvg speedWind from/ knotsBaromVisibWave heightAir tempDewpointWater temp
2018-Jun-25 00:48N 42°21' W 071°03'1 1.8
2018-Jun-25 00:30N 42°22' W 071°03'0 0.3
2018-Jun-25 00:00N 42°22' W 071°02'2 4.8
2018-Jun-24 23:30N 42°20' W 071°00'2 5.0
2018-Jun-24 23:00N 42°21' W 071°03'0 0.2
2018-Jun-24 22:31N 42°21' W 071°03'0 0.1
2018-Jun-24 22:00N 42°21' W 071°03'0 0.0
2018-Jun-24 00:43N 42°21' W 071°03'1 3.5
2018-Jun-24 00:30N 42°22' W 071°03'0 0.6
2018-Jun-24 00:00N 42°22' W 071°02'2 3.4
2018-Jun-23 23:30N 42°21' W 071°01'2 3.4
2018-Jun-23 23:00N 42°21' W 071°03'0 0.2
2018-Jun-23 22:30N 42°21' W 071°03'0 0.9
2018-Jun-23 22:00N 42°22' W 071°03'1 2.5
2018-Jun-23 21:30N 42°23' W 071°03'0 0.6
2018-Jun-23 21:00N 42°23' W 071°03'1 3.0
2018-Jun-23 20:30N 42°22' W 071°02'1 1.9
2018-Jun-23 20:00N 42°21' W 071°02'1 2.1
2018-Jun-23 19:30N 42°21' W 071°03'0 0.0
2018-Jun-23 02:31N 42°21' W 071°03'0 2.0
2018-Jun-23 02:31N 42°21' W 071°03'1 2.5
2018-Jun-23 02:00N 42°21' W 071°01'1 1.8
2018-Jun-23 01:30N 42°20' W 071°00'2 4.1
2018-Jun-23 01:00N 42°21' W 071°03'1 1.2
2018-Jun-23 00:30N 42°22' W 071°03'1 1.2
2018-Jun-23 00:01N 42°22' W 071°02'1 2.6
2018-Jun-22 23:30N 42°21' W 071°01'2 3.3
2018-Jun-22 23:00N 42°21' W 071°03'0 0.2
2018-Jun-22 22:30N 42°21' W 071°03'0 0.1
2018-Jun-22 22:00N 42°21' W 071°03'1 1.1
2018-Jun-22 21:31N 42°22' W 071°03'1 0.0
2018-Jun-22 02:38N 42°21' W 071°03'0 0.1
2018-Jun-22 02:30N 42°21' W 071°03'0 0.2
2018-Jun-22 02:01N 42°21' W 071°03'2 3.6
2018-Jun-22 01:31N 42°21' W 071°01'2 3.3
2018-Jun-22 01:00N 42°20' W 070°58'0 0.7
2018-Jun-22 00:30N 42°20' W 070°59'1 2.9
2018-Jun-22 00:00N 42°20' W 071°01'2 3.2
2018-Jun-21 23:30N 42°21' W 071°03'0 0.5
2018-Jun-21 23:00N 42°21' W 071°03'0 0.0
2018-Jun-21 22:30N 42°21' W 071°03'0 0.0
2018-Jun-21 22:00N 42°21' W 071°03'0 0.0
2018-Jun-20 15:00N 42°21' W 071°03'0 0.0
2018-Jun-20 14:30N 42°21' W 071°03'0 0.2
2018-Jun-20 14:00N 42°21' W 071°03'0 0.2
2018-Jun-20 13:31N 42°21' W 071°03'0 0.0
2018-Jun-20 13:00N 42°21' W 071°03'0 0.0
2018-Jun-20 00:41N 42°21' W 071°03'0 2.0
2018-Jun-20 00:30N 42°22' W 071°03'1 1.9
2018-Jun-20 00:00N 42°21' W 071°02'1 2.9
2018-Jun-19 23:30N 42°20' W 071°00'2 0.0
2018-Jun-17 20:35N 42°21' W 071°03'0 0.5
2018-Jun-17 20:30N 42°21' W 071°03'1 1.8
2018-Jun-17 20:00N 42°22' W 071°03'2 4.2
2018-Jun-17 19:30N 42°21' W 071°01'0 1.0
2018-Jun-17 19:00N 42°20' W 071°01'2 3.7
2018-Jun-17 18:30N 42°21' W 071°03'0 0.0
2018-Jun-17 18:00N 42°21' W 071°03'0 0.0
2018-Jun-17 17:30N 42°21' W 071°03'0 0.0
2018-Jun-17 00:58N 42°21' W 071°03'1 1.9
2018-Jun-17 00:30N 42°22' W 071°03'1 2.4
2018-Jun-17 00:00N 42°21' W 071°02'1 2.9
2018-Jun-16 23:31N 42°20' W 071°00'2 3.9
2018-Jun-16 23:00N 42°21' W 071°03'0 0.3
2018-Jun-16 22:30N 42°21' W 071°03'1 1.0
2018-Jun-16 22:00N 42°22' W 071°03'1 2.0
2018-Jun-16 21:30N 42°21' W 071°02'1 1.6
2018-Jun-16 21:00N 42°21' W 071°03'2 4.5
2018-Jun-16 20:30N 42°20' W 071°00'2 3.5
2018-Jun-16 20:01N 42°19' W 070°58'1 2.3
2018-Jun-16 19:30N 42°20' W 070°59'0 0.9
2018-Jun-16 19:00N 42°20' W 070°59'2 3.9
2018-Jun-16 18:30N 42°21' W 071°01'2 3.0
2018-Jun-16 18:00N 42°21' W 071°03'0 0.0
2018-Jun-16 17:30N 42°21' W 071°03'0 0.0
2018-Jun-16 17:00N 42°21' W 071°03'0 0.0
2018-Jun-16 02:40N 42°21' W 071°03'0 0.4
2018-Jun-16 02:30N 42°21' W 071°03'1 2.8
2018-Jun-16 02:00N 42°21' W 071°01'1 1.7
2018-Jun-16 01:30N 42°21' W 071°02'1 1.3
2018-Jun-16 01:00N 42°21' W 071°03'0 0.7
2018-Jun-16 00:30N 42°22' W 071°03'0 0.8
2018-Jun-16 00:00N 42°22' W 071°02'1 2.6
2018-Jun-15 23:30N 42°21' W 071°01'2 3.3
2018-Jun-15 23:00N 42°21' W 071°03'0 0.0
2018-Jun-15 22:30N 42°21' W 071°03'0 0.0
2018-Jun-15 22:00N 42°21' W 071°03'1 1.8
2018-Jun-15 21:30N 42°22' W 071°03'1 2.4
2018-Jun-15 21:00N 42°21' W 071°02'1 1.2
2018-Jun-15 20:30N 42°21' W 071°03'0 0.2
2018-Jun-15 20:00N 42°21' W 071°03'0 0.2
2018-Jun-15 19:30N 42°21' W 071°03'1 2.5
2018-Jun-15 19:00N 42°23' W 071°03'1 1.3
2018-Jun-15 18:30N 42°23' W 071°03'0 0.0
2018-Jun-15 18:01N 42°23' W 071°03'0 0.0
2018-Jun-15 17:30N 42°23' W 071°03'0 0.0
2018-Jun-15 17:00N 42°23' W 071°03'0 0.0
2018-Jun-15 16:30N 42°23' W 071°03'0 0.0
2018-Jun-15 16:01N 42°23' W 071°03'0 0.0
2018-Jun-15 13:26N 42°23' W 071°03'0 0.0
2018-Jun-15 13:00N 42°23' W 071°03'0 0.0
2018-Jun-15 12:26N 42°23' W 071°03'0 0.0
2018-Jun-15 12:00N 42°23' W 071°03'0 0.0
2018-Jun-15 11:30N 42°23' W 071°03'0 0.0
2018-Jun-15 04:09N 42°23' W 071°03'0 0.3
2018-Jun-15 04:01N 42°23' W 071°03'2 3.6
2018-Jun-15 03:30N 42°21' W 071°03'1 2.8
2018-Jun-15 03:00N 42°21' W 071°01'3 7.0
2018-Jun-15 02:30N 42°18' W 070°58'3 5.4
2018-Jun-15 02:00N 42°16' W 070°56'1 1.9
2018-Jun-15 01:30N 42°15' W 070°55'2 3.5
2018-Jun-15 01:01N 42°17' W 070°56'  

Dump ship's entire track history